createdAt,value
2017-11-11T00:01:02.277Z,104.10
2017-11-11T00:03:30.793Z,114.63
2017-11-11T00:05:58.961Z,93.80
2017-11-11T00:08:26.695Z,120.83
2017-11-11T00:10:54.477Z,112.30
2017-11-11T00:13:22.304Z,92.40
2017-11-11T00:15:49.917Z,97.13
2017-11-11T00:18:17.529Z,57.83
2017-11-11T00:20:45.099Z,61.93
2017-11-11T00:23:12.756Z,71.63
2017-11-11T00:25:41.077Z,74.53
2017-11-11T00:28:08.679Z,69.83
2017-11-11T00:30:36.300Z,68.23
2017-11-11T00:33:04.093Z,72.80
2017-11-11T00:35:31.901Z,79.97
2017-11-11T00:37:59.917Z,82.33
2017-11-11T00:40:28.266Z,74.07
2017-11-11T00:42:55.801Z,89.50
2017-11-11T00:45:23.596Z,87.23
2017-11-11T00:47:51.464Z,87.20
2017-11-11T00:50:19.246Z,95.07
2017-11-11T00:52:46.921Z,100.97
2017-11-11T00:55:14.526Z,100.33
2017-11-11T00:57:42.185Z,80.30
2017-11-11T01:00:09.968Z,81.27
2017-11-11T01:02:38.634Z,77.60
2017-11-11T01:05:06.514Z,86.43
2017-11-11T01:07:35.014Z,80.77
2017-11-11T01:10:03.194Z,82.40
2017-11-11T01:12:31.609Z,76.53
2017-11-11T01:14:59.213Z,76.73
2017-11-11T01:17:26.981Z,79.43
2017-11-11T01:19:54.814Z,78.00
2017-11-11T01:22:23.263Z,77.93
2017-11-11T01:24:51.873Z,81.33
2017-11-11T01:27:19.732Z,78.20
2017-11-11T01:29:47.581Z,90.23
2017-11-11T01:32:15.675Z,88.07
2017-11-11T01:34:43.483Z,88.93
2017-11-11T01:37:11.293Z,97.27
2017-11-11T01:39:39.099Z,92.30
2017-11-11T01:42:06.702Z,90.37
2017-11-11T01:44:34.321Z,101.27
2017-11-11T01:47:03.668Z,95.63
2017-11-11T01:49:32.003Z,107.20
2017-11-11T01:52:00.910Z,90.23
2017-11-11T01:54:29.790Z,97.90
2017-11-11T01:56:59.353Z,93.93
2017-11-11T01:59:30.710Z,92.63
2017-11-11T02:02:03.785Z,94.50
2017-11-11T02:04:33.645Z,103.37
2017-11-11T02:07:02.888Z,97.83
2017-11-11T02:09:30.795Z,90.27
2017-11-11T02:11:59.271Z,101.00
2017-11-11T02:14:26.896Z,88.80
2017-11-11T02:16:54.685Z,99.50
2017-11-11T02:19:22.353Z,92.10
2017-11-11T02:21:49.987Z,96.33
2017-11-11T02:24:17.786Z,88.37
2017-11-11T02:26:45.362Z,97.73
2017-11-11T02:29:12.992Z,87.90
2017-11-11T02:31:40.592Z,92.70
2017-11-11T02:34:08.240Z,92.90
2017-11-11T02:36:36.741Z,82.83
2017-11-11T02:39:04.665Z,74.30
2017-11-11T02:41:32.269Z,73.27
2017-11-11T02:44:00.452Z,76.77
2017-11-11T02:46:28.124Z,81.10
2017-11-11T02:48:55.947Z,87.03
2017-11-11T02:51:23.574Z,84.33
2017-11-11T02:53:51.252Z,72.80
2017-11-11T02:56:19.083Z,74.03
2017-11-11T02:58:46.945Z,72.83
2017-11-11T03:01:14.535Z,69.70
2017-11-11T03:03:42.335Z,70.30
2017-11-11T03:06:09.982Z,62.77
2017-11-11T03:08:37.605Z,67.53
2017-11-11T03:11:05.992Z,62.17
2017-11-11T03:13:33.789Z,69.33
2017-11-11T03:16:01.402Z,74.23
2017-11-11T03:18:29.224Z,75.97
2017-11-11T03:20:56.778Z,72.83
2017-11-11T03:23:24.576Z,73.60
2017-11-11T03:25:52.180Z,71.70
2017-11-11T03:28:19.782Z,80.13
2017-11-11T03:30:47.431Z,70.33
2017-11-11T03:33:15.043Z,72.87
2017-11-11T03:35:42.909Z,78.20
2017-11-11T03:38:10.529Z,67.00
2017-11-11T03:40:38.959Z,73.10
2017-11-11T03:43:07.056Z,71.87
2017-11-11T03:45:35.597Z,77.30
2017-11-11T03:48:03.246Z,70.63
2017-11-11T03:50:31.002Z,71.10
2017-11-11T03:52:58.588Z,65.27
2017-11-11T03:55:26.205Z,72.80
2017-11-11T03:57:53.779Z,68.57
2017-11-11T04:00:21.425Z,64.33
2017-11-11T04:02:49.062Z,62.30
2017-11-11T04:05:18.159Z,68.70
2017-11-11T04:07:45.849Z,61.73
2017-11-11T04:10:13.509Z,68.50
2017-11-11T04:12:41.456Z,69.40
2017-11-11T04:15:09.081Z,77.63
2017-11-11T04:17:36.652Z,68.50
2017-11-11T04:20:04.483Z,75.80
2017-11-11T04:22:32.126Z,70.53
2017-11-11T04:25:00.206Z,61.07
2017-11-11T04:27:27.929Z,69.87
2017-11-11T04:29:55.539Z,63.30
2017-11-11T04:32:23.824Z,62.53
2017-11-11T04:34:51.383Z,61.33
2017-11-11T04:37:20.014Z,56.30
2017-11-11T04:39:48.884Z,52.97
2017-11-11T04:42:16.694Z,55.87
2017-11-11T04:44:44.348Z,60.80
2017-11-11T04:47:11.983Z,50.83
2017-11-11T04:49:39.747Z,56.50
2017-11-11T04:52:07.474Z,57.63
2017-11-11T04:54:36.120Z,58.70
2017-11-11T04:57:03.941Z,59.50
2017-11-11T04:59:31.647Z,53.77
2017-11-11T05:01:59.393Z,62.20
2017-11-11T05:04:26.988Z,53.63
2017-11-11T05:06:54.681Z,62.33
2017-11-11T05:09:23.233Z,57.00
2017-11-11T05:11:50.940Z,47.97
2017-11-11T05:14:18.775Z,61.50
2017-11-11T05:16:46.416Z,59.33
2017-11-11T05:19:14.096Z,60.20
2017-11-11T05:21:41.664Z,53.23
2017-11-11T05:24:09.367Z,63.10
2017-11-11T05:26:36.896Z,57.37
2017-11-11T05:29:04.650Z,52.07
2017-11-11T05:31:32.497Z,60.50
2017-11-11T05:34:00.510Z,47.60
2017-11-11T05:36:28.108Z,57.50
2017-11-11T05:38:55.679Z,61.43
2017-11-11T05:41:23.438Z,51.17
2017-11-11T05:43:51.004Z,55.50
2017-11-11T05:46:18.674Z,57.47
2017-11-11T05:48:46.225Z,52.20
2017-11-11T05:51:14.699Z,52.93
2017-11-11T05:53:42.305Z,57.60
2017-11-11T05:56:10.140Z,58.17
2017-11-11T05:58:37.717Z,50.07
2017-11-11T06:01:05.338Z,53.77
2017-11-11T06:03:33.108Z,50.00
2017-11-11T06:06:00.633Z,48.13
2017-11-11T06:08:28.210Z,58.57
2017-11-11T06:10:55.754Z,57.00
2017-11-11T06:13:23.374Z,48.90
2017-11-11T06:15:50.960Z,48.70
2017-11-11T06:18:18.513Z,47.70
2017-11-11T06:20:46.084Z,54.10
2017-11-11T06:23:13.705Z,62.97
2017-11-11T06:25:41.296Z,53.97
2017-11-11T06:28:08.968Z,53.93
2017-11-11T06:30:36.548Z,50.50
2017-11-11T06:33:04.356Z,50.20
2017-11-11T06:35:31.935Z,53.03
2017-11-11T06:37:59.561Z,54.13
2017-11-11T06:40:27.127Z,53.23
2017-11-11T06:42:54.733Z,52.87
2017-11-11T06:45:22.305Z,55.37
2017-11-11T06:47:49.829Z,64.83
2017-11-11T06:50:17.391Z,58.10
2017-11-11T06:52:45.277Z,64.87
2017-11-11T06:55:12.901Z,65.70
2017-11-11T06:57:40.786Z,53.87
2017-11-11T07:00:10.569Z,61.80
2017-11-11T07:02:38.169Z,56.80
2017-11-11T07:05:06.691Z,55.00
2017-11-11T07:07:34.320Z,48.13
2017-11-11T07:10:01.949Z,51.10
2017-11-11T07:12:29.767Z,50.13
2017-11-11T07:14:57.453Z,45.40
2017-11-11T07:17:25.040Z,45.93
2017-11-11T07:19:52.848Z,45.53
2017-11-11T07:22:20.490Z,40.03
2017-11-11T07:24:48.070Z,44.33
2017-11-11T07:27:15.836Z,43.20
2017-11-11T07:29:43.883Z,52.60
2017-11-11T07:32:14.437Z,55.80
2017-11-11T07:34:42.069Z,52.03
2017-11-11T07:37:09.651Z,52.07
2017-11-11T07:39:37.330Z,62.87
2017-11-11T07:42:05.133Z,63.77
2017-11-11T07:44:34.542Z,59.40
2017-11-11T07:47:03.797Z,66.67
2017-11-11T07:49:31.325Z,73.80
2017-11-11T07:52:02.490Z,64.70
2017-11-11T07:54:30.111Z,58.20
2017-11-11T07:56:57.892Z,53.33
2017-11-11T07:59:25.500Z,57.30
2017-11-11T08:01:54.359Z,54.10
2017-11-11T08:04:22.058Z,48.40
2017-11-11T08:06:50.612Z,49.47
2017-11-11T08:09:18.273Z,51.87
2017-11-11T08:11:47.048Z,71.00
2017-11-11T08:14:14.747Z,60.30
2017-11-11T08:16:42.412Z,61.63
2017-11-11T08:19:13.609Z,65.80
2017-11-11T08:21:41.235Z,72.17
2017-11-11T08:24:08.934Z,77.17
2017-11-11T08:26:37.562Z,81.97
2017-11-11T08:29:05.422Z,74.97
2017-11-11T08:31:33.060Z,88.53
2017-11-11T08:34:00.810Z,84.90
2017-11-11T08:36:28.480Z,84.57
2017-11-11T08:38:56.128Z,85.37
2017-11-11T08:41:24.376Z,87.67
2017-11-11T08:43:52.013Z,78.63
2017-11-11T08:49:52.424Z,87.43
2017-11-11T08:52:20.128Z,82.97
2017-11-11T08:54:47.792Z,71.73
2017-11-11T08:57:15.700Z,65.63
2017-11-11T08:59:43.398Z,72.30
2017-11-11T09:02:11.701Z,65.30
2017-11-11T09:04:39.514Z,69.00
2017-11-11T09:07:07.277Z,41.60
2017-11-11T09:09:36.363Z,35.50
2017-11-11T09:12:04.065Z,41.40
2017-11-11T09:14:31.956Z,46.30
2017-11-11T09:16:59.624Z,36.57
2017-11-11T09:19:29.226Z,38.80
2017-11-11T09:22:05.608Z,44.13
2017-11-11T09:24:33.243Z,39.77
2017-11-11T09:27:00.925Z,34.70
2017-11-11T09:29:37.978Z,43.33
2017-11-11T09:32:06.359Z,42.23
2017-11-11T09:34:34.386Z,51.20
2017-11-11T09:37:03.095Z,44.70
2017-11-11T09:39:34.020Z,45.50
2017-11-11T09:42:11.223Z,46.93
2017-11-11T09:44:41.874Z,44.10
2017-11-11T09:47:11.471Z,48.47
2017-11-11T09:49:41.412Z,44.40
2017-11-11T09:52:11.559Z,53.90
2017-11-11T09:54:40.552Z,51.23
2017-11-11T09:57:08.298Z,51.40
2017-11-11T09:59:35.971Z,48.80
2017-11-11T10:02:04.716Z,46.90
2017-11-11T10:04:32.535Z,45.80
2017-11-11T10:07:00.208Z,44.87
2017-11-11T10:09:28.844Z,41.17
2017-11-11T10:11:59.582Z,46.97
2017-11-11T10:14:29.660Z,51.27
2017-11-11T10:16:57.215Z,42.33
2017-11-11T10:19:27.621Z,39.40
2017-11-11T10:22:00.384Z,41.10
2017-11-11T10:24:34.663Z,45.03
2017-11-11T10:27:13.779Z,48.03
2017-11-11T10:29:42.552Z,47.37
2017-11-11T10:32:10.256Z,44.10
2017-11-11T10:34:38.325Z,48.50
2017-11-11T10:37:06.692Z,47.40
2017-11-11T10:39:34.289Z,47.57
2017-11-11T10:42:02.674Z,52.37
2017-11-11T10:44:30.483Z,55.43
2017-11-11T10:46:58.186Z,59.53
2017-11-11T10:49:25.817Z,48.17
2017-11-11T10:51:53.479Z,45.73
2017-11-11T10:54:21.115Z,49.50
2017-11-11T10:56:50.610Z,49.27
2017-11-11T10:59:18.217Z,54.67
2017-11-11T11:01:45.873Z,54.03
2017-11-11T11:04:13.554Z,46.50
2017-11-11T11:06:41.186Z,47.37
2017-11-11T11:09:08.911Z,45.97
2017-11-11T11:11:40.161Z,57.83
2017-11-11T11:14:08.013Z,44.93
2017-11-11T11:16:35.663Z,36.07
2017-11-11T11:19:04.073Z,29.90
2017-11-11T11:21:31.824Z,43.80
2017-11-11T11:23:59.457Z,32.10
2017-11-11T11:26:27.615Z,26.73
2017-11-11T11:28:56.497Z,26.03
2017-11-11T11:31:24.302Z,26.63
2017-11-11T11:33:51.868Z,24.33
2017-11-11T11:42:42.900Z,28.73
2017-11-11T11:45:10.560Z,25.80
2017-11-11T11:47:38.471Z,25.93
2017-11-11T11:50:09.074Z,25.57
2017-11-11T11:52:36.714Z,30.53
2017-11-11T11:55:04.391Z,41.33
2017-11-11T11:57:32.124Z,36.27
2017-11-11T12:00:01.807Z,34.40
2017-11-11T12:02:29.465Z,31.77
2017-11-11T12:04:57.048Z,33.47
2017-11-11T12:07:24.752Z,30.67
2017-11-11T12:09:52.623Z,33.50
2017-11-11T12:12:20.407Z,29.40
2017-11-11T12:14:56.616Z,28.80
2017-11-11T12:17:24.190Z,31.07
2017-11-11T12:20:34.191Z,29.30
2017-11-11T12:23:13.058Z,31.00
2017-11-11T12:25:40.915Z,44.90
2017-11-11T12:28:08.460Z,30.83
2017-11-11T12:30:58.589Z,31.90
2017-11-11T12:33:26.190Z,30.37
2017-11-11T12:35:58.812Z,29.27
2017-11-11T12:38:31.465Z,31.90
2017-11-11T12:54:38.680Z,28.03
2017-11-11T12:57:06.292Z,25.67
2017-11-11T12:59:33.911Z,34.93
2017-11-11T13:02:02.489Z,29.90
2017-11-11T13:04:30.896Z,29.67
2017-11-11T13:06:58.456Z,26.60
2017-11-11T13:09:26.612Z,28.23
2017-11-11T13:11:54.242Z,30.13
2017-11-11T13:14:21.867Z,25.63
2017-11-11T13:16:49.553Z,25.57
2017-11-11T13:19:17.755Z,28.70
2017-11-11T13:21:45.572Z,26.57
2017-11-11T13:24:13.278Z,24.03
2017-11-11T13:26:41.790Z,29.50
2017-11-11T13:29:09.367Z,30.53
2017-11-11T13:31:37.769Z,31.50
2017-11-11T13:34:06.257Z,30.53
2017-11-11T13:36:33.878Z,28.53
2017-11-11T13:39:02.259Z,28.17
2017-11-11T13:41:30.027Z,28.50
2017-11-11T13:43:57.630Z,28.70
2017-11-11T13:46:25.269Z,35.57
2017-11-11T13:48:52.888Z,31.17
2017-11-11T13:51:20.463Z,43.97
2017-11-11T13:53:48.095Z,29.80
2017-11-11T13:56:15.630Z,28.37
2017-11-11T13:58:43.165Z,31.53
2017-11-11T14:01:10.826Z,36.23
2017-11-11T14:03:38.704Z,29.77
2017-11-11T14:06:06.304Z,33.00
2017-11-11T14:08:34.101Z,37.90
2017-11-11T14:11:01.676Z,38.63
2017-11-11T14:13:29.232Z,37.73
2017-11-11T14:15:59.931Z,38.73
2017-11-11T14:18:27.549Z,33.53
2017-11-11T14:20:55.157Z,37.90
2017-11-11T14:23:22.791Z,40.77
2017-11-11T14:29:24.608Z,37.13
2017-11-11T14:31:52.251Z,40.20
2017-11-11T14:34:19.841Z,46.37
2017-11-11T14:36:48.720Z,44.10
2017-11-11T14:39:33.269Z,50.63
2017-11-11T14:44:51.710Z,49.50
2017-11-11T14:47:19.527Z,49.93
2017-11-11T14:49:47.956Z,54.47
2017-11-11T14:52:18.967Z,46.80
2017-11-11T14:54:50.301Z,46.33
2017-11-11T14:57:26.115Z,44.33
2017-11-11T15:00:11.134Z,37.90
2017-11-11T15:02:41.341Z,48.40
2017-11-11T15:05:09.104Z,43.03
2017-11-11T15:07:36.762Z,50.13
2017-11-11T15:10:06.104Z,39.63
2017-11-11T15:12:33.862Z,43.30
2017-11-11T15:15:02.292Z,25.87
2017-11-11T15:17:30.092Z,25.43
2017-11-11T15:19:57.996Z,26.30
2017-11-11T15:22:26.428Z,30.13
2017-11-11T15:24:54.154Z,22.63
2017-11-11T15:27:22.775Z,22.40
2017-11-11T15:29:50.454Z,17.43
2017-11-11T15:32:18.151Z,27.57
2017-11-11T15:34:45.841Z,20.27
2017-11-11T15:37:13.856Z,21.47
2017-11-11T15:39:41.870Z,21.67
2017-11-11T15:42:09.500Z,28.30
2017-11-11T15:44:37.151Z,30.13
2017-11-11T15:47:04.801Z,18.73
2017-11-11T15:49:33.124Z,25.27
2017-11-11T15:52:00.764Z,28.20
2017-11-11T15:54:28.484Z,26.77
2017-11-11T15:56:56.538Z,30.53
2017-11-11T15:59:24.203Z,26.40
2017-11-11T16:01:51.870Z,28.93
2017-11-11T16:04:19.681Z,27.83
2017-11-11T16:06:49.095Z,23.70
2017-11-11T16:13:02.363Z,31.13
2017-11-11T16:15:30.204Z,62.50
2017-11-11T16:18:05.298Z,60.80
2017-11-11T16:20:33.081Z,53.77
2017-11-11T16:33:00.729Z,30.43
2017-11-11T16:35:32.425Z,31.47
2017-11-11T17:21:54.817Z,86.15
2017-11-11T17:24:26.033Z,74.40
2017-11-11T17:26:53.736Z,74.40
2017-11-11T17:29:22.740Z,85.10
2017-11-11T17:34:31.393Z,69.70
2017-11-11T17:36:59.884Z,62.20
2017-11-11T17:39:27.729Z,75.97
2017-11-11T17:41:55.778Z,68.43
2017-11-11T17:44:23.611Z,66.47
2017-11-11T17:46:51.376Z,69.53
2017-11-11T17:49:19.785Z,81.43
2017-11-11T17:51:48.429Z,80.17
2017-11-11T17:54:16.154Z,128.13
2017-11-11T17:56:43.900Z,165.67
2017-11-11T17:59:13.260Z,204.13
2017-11-11T18:02:24.703Z,203.40
2017-11-11T18:15:09.769Z,162.33
2017-11-11T18:17:39.485Z,182.37
2017-11-11T18:20:26.927Z,189.23
2017-11-11T18:22:54.693Z,179.97
2017-11-11T18:37:06.928Z,183.40
2017-11-11T18:39:56.957Z,171.47
2017-11-11T18:46:01.189Z,169.17
2017-11-11T18:54:48.962Z,182.20
2017-11-11T18:57:16.788Z,182.50
2017-11-11T18:59:48.201Z,188.17
2017-11-11T19:05:24.067Z,182.53
2017-11-11T19:08:17.411Z,178.13
2017-11-11T19:10:50.083Z,184.37
2017-11-11T19:13:33.120Z,172.70
2017-11-11T19:16:34.710Z,176.73
2017-11-11T19:19:43.676Z,152.60
2017-11-11T19:22:13.153Z,91.97
2017-11-11T19:24:40.889Z,96.97
2017-11-11T19:27:09.885Z,118.70
2017-11-11T19:30:00.037Z,121.13
2017-11-11T19:32:35.231Z,114.70
2017-11-11T19:35:06.233Z,119.83
2017-11-11T19:37:34.682Z,115.97
2017-11-11T19:40:02.516Z,107.53
2017-11-11T19:42:30.243Z,117.13
2017-11-11T19:44:58.691Z,111.33
2017-11-11T19:47:26.323Z,110.40
2017-11-11T19:49:56.135Z,110.70
2017-11-11T19:52:23.755Z,114.97
2017-11-11T19:54:51.413Z,112.30
2017-11-11T19:57:19.223Z,117.43
2017-11-11T19:59:46.998Z,102.63
2017-11-11T20:02:16.965Z,105.23
2017-11-11T20:04:45.215Z,101.60
2017-11-11T20:07:12.911Z,110.47
2017-11-11T20:09:47.491Z,109.63
2017-11-11T20:12:15.184Z,98.07
2017-11-11T20:14:42.857Z,104.97
2017-11-11T20:17:10.526Z,98.60
2017-11-11T20:19:38.169Z,91.90
2017-11-11T20:22:05.921Z,98.30
2017-11-11T20:24:33.541Z,94.10
2017-11-11T20:27:01.228Z,92.63
2017-11-11T20:29:28.825Z,95.87
2017-11-11T20:31:56.437Z,81.20
2017-11-11T20:34:25.441Z,74.47
2017-11-11T20:36:53.272Z,75.83
2017-11-11T20:39:20.969Z,66.27
2017-11-11T20:41:58.175Z,65.23
2017-11-11T20:44:32.606Z,66.17
2017-11-11T20:47:03.012Z,65.30
2017-11-11T20:49:42.723Z,66.47
2017-11-11T20:52:12.622Z,64.70
2017-11-11T20:54:55.758Z,54.23
2017-11-11T20:57:24.337Z,57.00
2017-11-11T20:59:51.956Z,55.37
2017-11-11T21:02:19.579Z,51.73
2017-11-11T21:04:47.413Z,56.33
2017-11-11T21:07:15.001Z,58.00
2017-11-11T21:09:42.750Z,55.07
2017-11-11T21:12:10.871Z,51.37
2017-11-11T21:14:39.425Z,55.30
2017-11-11T21:17:08.021Z,55.07
2017-11-11T21:19:35.907Z,71.67
2017-11-11T21:22:04.880Z,68.80
2017-11-11T21:24:32.693Z,58.60
2017-11-11T21:27:00.440Z,50.50
2017-11-11T21:29:29.270Z,54.20
2017-11-11T21:31:56.965Z,58.00
2017-11-11T21:34:24.713Z,58.33
2017-11-11T21:36:52.287Z,57.90
2017-11-11T21:39:20.149Z,57.87
2017-11-11T21:41:48.595Z,57.53
2017-11-11T21:44:16.371Z,55.03
2017-11-11T21:46:44.658Z,58.80
2017-11-11T21:49:12.275Z,50.30
2017-11-11T21:51:39.900Z,57.00
2017-11-11T21:54:07.523Z,53.33
2017-11-11T21:56:35.160Z,52.17
2017-11-11T21:59:02.981Z,60.30
2017-11-11T22:01:30.652Z,64.90
2017-11-11T22:03:59.365Z,61.97
2017-11-11T22:06:27.604Z,62.50
2017-11-11T22:08:55.263Z,59.90
2017-11-11T22:11:22.929Z,60.53
2017-11-11T22:13:50.611Z,68.23
2017-11-11T22:16:18.277Z,58.83
2017-11-11T22:18:46.509Z,68.13
2017-11-11T22:21:14.082Z,62.20
2017-11-11T22:23:41.773Z,65.23
2017-11-11T22:26:10.429Z,67.30
2017-11-11T22:28:38.273Z,73.27
2017-11-11T22:31:06.832Z,68.20
2017-11-11T22:33:35.450Z,71.33
2017-11-11T22:36:03.077Z,64.57
2017-11-11T22:38:31.720Z,72.07
2017-11-11T22:40:59.297Z,77.10
2017-11-11T22:43:27.807Z,73.90
2017-11-11T22:45:56.205Z,75.90
2017-11-11T22:48:24.138Z,77.43
2017-11-11T22:50:52.316Z,78.27
2017-11-11T22:53:20.066Z,82.70
2017-11-11T22:55:47.997Z,77.80
2017-11-11T22:58:18.432Z,77.63
2017-11-11T23:00:46.128Z,73.67
2017-11-11T23:03:13.783Z,74.27
2017-11-11T23:05:41.436Z,68.57
2017-11-11T23:08:09.138Z,77.73
2017-11-11T23:10:38.540Z,73.27
2017-11-11T23:13:06.130Z,73.20
2017-11-11T23:15:34.242Z,71.33
2017-11-11T23:18:01.879Z,75.83
2017-11-11T23:20:29.537Z,73.57
2017-11-11T23:22:57.585Z,69.60
2017-11-11T23:25:25.560Z,77.10
2017-11-11T23:27:54.175Z,78.57
2017-11-11T23:30:22.019Z,81.67
2017-11-11T23:32:49.870Z,75.03
2017-11-11T23:35:17.563Z,95.77
2017-11-11T23:37:45.710Z,78.60
2017-11-11T23:40:13.627Z,67.77
2017-11-11T23:42:41.346Z,68.80
2017-11-11T23:45:09.984Z,64.37
2017-11-11T23:47:37.593Z,59.20
2017-11-11T23:50:06.078Z,58.53
2017-11-11T23:52:33.720Z,53.80
2017-11-11T23:55:01.410Z,49.83
2017-11-11T23:57:29.064Z,50.13
2017-11-11T23:59:56.853Z,51.90
